sensor_id;sensor_type;location;lat;lon;timestamp;pressure;altitude;pressure_sealevel;temperature;humidity
75414;BME280;64758;52.122;5.404;2023-07-29T00:00:06;100950.53;;;16.49;100.00
75414;BME280;64758;52.122;5.404;2023-07-29T00:02:33;100931.16;;;16.47;100.00
75414;BME280;64758;52.122;5.404;2023-07-29T00:04:59;100942.69;;;16.48;100.00
75414;BME280;64758;52.122;5.404;2023-07-29T00:07:26;100941.88;;;16.47;100.00
75414;BME280;64758;52.122;5.404;2023-07-29T00:09:53;100933.09;;;16.40;100.00
75414;BME280;64758;52.122;5.404;2023-07-29T00:12:19;100934.94;;;16.40;100.00
75414;BME280;64758;52.122;5.404;2023-07-29T00:14:46;100936.22;;;16.37;100.00
75414;BME280;64758;52.122;5.404;2023-07-29T00:17:12;100920.56;;;16.34;100.00
75414;BME280;64758;52.122;5.404;2023-07-29T00:19:39;100925.28;;;16.32;100.00
75414;BME280;64758;52.122;5.404;2023-07-29T00:22:05;100918.13;;;16.26;100.00
75414;BME280;64758;52.122;5.404;2023-07-29T00:24:34;100917.97;;;16.21;100.00
75414;BME280;64758;52.122;5.404;2023-07-29T00:27:01;100909.78;;;16.16;100.00
75414;BME280;64758;52.122;5.404;2023-07-29T00:29:27;100902.53;;;16.17;100.00
75414;BME280;64758;52.122;5.404;2023-07-29T00:31:54;100905.00;;;16.18;100.00
75414;BME280;64758;52.122;5.404;2023-07-29T00:34:21;100888.78;;;16.13;100.00
75414;BME280;64758;52.122;5.404;2023-07-29T00:36:47;100893.53;;;16.11;100.00
75414;BME280;64758;52.122;5.404;2023-07-29T00:39:14;100890.63;;;16.13;100.00
75414;BME280;64758;52.122;5.404;2023-07-29T00:41:40;100904.25;;;16.11;100.00
75414;BME280;64758;52.122;5.404;2023-07-29T00:44:07;100915.56;;;16.13;100.00
75414;BME280;64758;52.122;5.404;2023-07-29T00:46:34;100917.41;;;16.13;100.00
75414;BME280;64758;52.122;5.404;2023-07-29T00:49:02;100920.06;;;16.19;100.00
75414;BME280;64758;52.122;5.404;2023-07-29T00:51:29;100925.78;;;16.23;100.00
75414;BME280;64758;52.122;5.404;2023-07-29T00:53:55;100913.22;;;16.23;100.00
75414;BME280;64758;52.122;5.404;2023-07-29T00:56:22;100905.53;;;16.27;100.00
75414;BME280;64758;52.122;5.404;2023-07-29T00:58:49;100892.53;;;16.30;100.00
75414;BME280;64758;52.122;5.404;2023-07-29T01:01:18;100895.41;;;16.29;100.00
75414;BME280;64758;52.122;5.404;2023-07-29T01:03:44;100887.00;;;16.25;100.00
75414;BME280;64758;52.122;5.404;2023-07-29T01:06:20;100886.41;;;16.23;100.00
75414;BME280;64758;52.122;5.404;2023-07-29T01:12:43;100890.34;;;16.21;100.00
75414;BME280;64758;52.122;5.404;2023-07-29T01:17:48;100903.81;;;16.14;100.00
75414;BME280;64758;52.122;5.404;2023-07-29T01:20:17;100891.44;;;16.13;100.00
75414;BME280;64758;52.122;5.404;2023-07-29T01:22:47;100895.09;;;16.19;100.00
75414;BME280;64758;52.122;5.404;2023-07-29T01:25:14;100901.44;;;16.24;100.00
75414;BME280;64758;52.122;5.404;2023-07-29T01:27:45;100896.88;;;16.25;100.00
75414;BME280;64758;52.122;5.404;2023-07-29T01:30:12;100898.53;;;16.26;100.00
75414;BME280;64758;52.122;5.404;2023-07-29T01:32:53;100887.59;;;16.27;100.00
75414;BME280;64758;52.122;5.404;2023-07-29T01:35:28;100896.69;;;16.26;100.00
75414;BME280;64758;52.122;5.404;2023-07-29T01:38:04;100888.94;;;16.18;100.00
75414;BME280;64758;52.122;5.404;2023-07-29T01:40:32;100907.09;;;16.16;100.00
75414;BME280;64758;52.122;5.404;2023-07-29T01:42:59;100903.81;;;16.14;100.00
75414;BME280;64758;52.122;5.404;2023-07-29T01:45:26;100886.00;;;16.20;100.00
75414;BME280;64758;52.122;5.404;2023-07-29T01:47:53;100885.81;;;16.21;100.00
75414;BME280;64758;52.122;5.404;2023-07-29T01:50:19;100878.38;;;16.23;100.00
75414;BME280;64758;52.122;5.404;2023-07-29T01:52:46;100887.38;;;16.29;100.00
75414;BME280;64758;52.122;5.404;2023-07-29T01:55:12;100888.03;;;16.24;100.00
75414;BME280;64758;52.122;5.404;2023-07-29T01:57:39;100884.78;;;16.22;100.00
75414;BME280;64758;52.122;5.404;2023-07-29T02:00:06;100878.13;;;16.25;100.00
75414;BME280;64758;52.122;5.404;2023-07-29T02:02:33;100869.28;;;16.24;100.00
75414;BME280;64758;52.122;5.404;2023-07-29T02:04:59;100873.34;;;16.33;100.00
75414;BME280;64758;52.122;5.404;2023-07-29T02:07:26;100877.44;;;16.36;100.00
75414;BME280;64758;52.122;5.404;2023-07-29T02:09:53;100876.34;;;16.43;100.00
75414;BME280;64758;52.122;5.404;2023-07-29T02:12:20;100861.03;;;16.44;100.00
75414;BME280;64758;52.122;5.404;2023-07-29T02:14:46;100868.66;;;16.47;100.00
75414;BME280;64758;52.122;5.404;2023-07-29T02:17:13;100868.88;;;16.45;100.00
75414;BME280;64758;52.122;5.404;2023-07-29T02:19:39;100860.84;;;16.45;100.00
75414;BME280;64758;52.122;5.404;2023-07-29T02:22:06;100870.38;;;16.41;100.00
75414;BME280;64758;52.122;5.404;2023-07-29T02:24:32;100862.94;;;16.43;100.00
75414;BME280;64758;52.122;5.404;2023-07-29T02:26:59;100855.91;;;16.42;100.00
75414;BME280;64758;52.122;5.404;2023-07-29T02:29:25;100858.16;;;16.45;100.00
75414;BME280;64758;52.122;5.404;2023-07-29T02:31:52;100859.19;;;16.44;100.00
75414;BME280;64758;52.122;5.404;2023-07-29T02:34:19;100857.72;;;16.48;100.00
75414;BME280;64758;52.122;5.404;2023-07-29T02:36:45;100855.91;;;16.42;100.00
75414;BME280;64758;52.122;5.404;2023-07-29T02:39:12;100861.03;;;16.44;100.00
75414;BME280;64758;52.122;5.404;2023-07-29T02:41:38;100860.59;;;16.47;100.00
75414;BME280;64758;52.122;5.404;2023-07-29T02:44:05;100860.16;;;16.50;100.00
75414;BME280;64758;52.122;5.404;2023-07-29T02:46:32;100854.78;;;16.50;100.00
75414;BME280;64758;52.122;5.404;2023-07-29T02:48:58;100853.00;;;16.44;100.00
75414;BME280;64758;52.122;5.404;2023-07-29T02:51:25;100854.63;;;16.45;100.00
75414;BME280;64758;52.122;5.404;2023-07-29T02:53:52;100852.19;;;16.43;100.00
75414;BME280;64758;52.122;5.404;2023-07-29T02:56:18;100852.56;;;16.47;100.00
75414;BME280;64758;52.122;5.404;2023-07-29T02:58:45;100846.69;;;16.38;100.00
75414;BME280;64758;52.122;5.404;2023-07-29T03:01:11;100850.41;;;16.37;100.00
75414;BME280;64758;52.122;5.404;2023-07-29T03:03:39;100849.97;;;16.40;100.00
75414;BME280;64758;52.122;5.404;2023-07-29T03:06:08;100853.44;;;16.41;100.00
75414;BME280;64758;52.122;5.404;2023-07-29T03:08:35;100843.16;;;16.38;100.00
75414;BME280;64758;52.122;5.404;2023-07-29T03:11:10;100842.13;;;16.39;100.00
75414;BME280;64758;52.122;5.404;2023-07-29T03:13:37;100834.91;;;16.39;100.00
75414;BME280;64758;52.122;5.404;2023-07-29T03:16:14;100834.09;;;16.39;100.00
75414;BME280;64758;52.122;5.404;2023-07-29T03:18:42;100837.44;;;16.34;100.00
75414;BME280;64758;52.122;5.404;2023-07-29T03:21:10;100832.88;;;16.35;100.00
75414;BME280;64758;52.122;5.404;2023-07-29T03:23:38;100835.81;;;16.33;100.00
75414;BME280;64758;52.122;5.404;2023-07-29T03:26:04;100836.81;;;16.32;100.00
75414;BME280;64758;52.122;5.404;2023-07-29T03:28:41;100840.50;;;16.38;100.00
75414;BME280;64758;52.122;5.404;2023-07-29T03:31:08;100840.88;;;16.41;100.00
75414;BME280;64758;52.122;5.404;2023-07-29T03:33:35;100845.84;;;16.38;100.00
75414;BME280;64758;52.122;5.404;2023-07-29T03:36:01;100842.97;;;16.39;100.00
75414;BME280;64758;52.122;5.404;2023-07-29T03:38:28;100831.03;;;16.35;100.00
75414;BME280;64758;52.122;5.404;2023-07-29T03:40:54;100831.47;;;16.32;100.00
75414;BME280;64758;52.122;5.404;2023-07-29T03:43:21;100838.84;;;16.37;100.00
75414;BME280;64758;52.122;5.404;2023-07-29T03:45:48;100838.63;;;16.38;100.00
75414;BME280;64758;52.122;5.404;2023-07-29T03:48:14;100840.72;;;16.36;100.00
75414;BME280;64758;52.122;5.404;2023-07-29T03:50:41;100846.91;;;16.37;100.00
75414;BME280;64758;52.122;5.404;2023-07-29T03:53:07;100835.56;;;16.35;100.00
75414;BME280;64758;52.122;5.404;2023-07-29T03:55:37;100841.34;;;16.32;100.00
75414;BME280;64758;52.122;5.404;2023-07-29T03:58:03;100850.22;;;16.32;100.00
75414;BME280;64758;52.122;5.404;2023-07-29T04:00:30;100860.94;;;16.32;100.00
75414;BME280;64758;52.122;5.404;2023-07-29T04:02:57;100851.72;;;16.28;100.00
75414;BME280;64758;52.122;5.404;2023-07-29T04:05:23;100852.75;;;16.27;100.00
75414;BME280;64758;52.122;5.404;2023-07-29T04:07:50;100844.13;;;16.25;100.00
75414;BME280;64758;52.122;5.404;2023-07-29T04:10:17;100843.06;;;16.26;100.00
75414;BME280;64758;52.122;5.404;2023-07-29T04:12:43;100858.31;;;16.26;100.00
75414;BME280;64758;52.122;5.404;2023-07-29T04:15:10;100861.69;;;16.21;100.00
75414;BME280;64758;52.122;5.404;2023-07-29T04:17:36;100849.31;;;16.20;100.00
75414;BME280;64758;52.122;5.404;2023-07-29T04:20:04;100850.38;;;16.19;100.00
75414;BME280;64758;52.122;5.404;2023-07-29T04:22:30;100846.03;;;16.18;100.00
75414;BME280;64758;52.122;5.404;2023-07-29T04:24:57;100840.25;;;16.21;100.00
75414;BME280;64758;52.122;5.404;2023-07-29T04:27:24;100849.91;;;16.22;100.00
75414;BME280;64758;52.122;5.404;2023-07-29T04:29:51;100835.47;;;16.23;100.00
75414;BME280;64758;52.122;5.404;2023-07-29T04:32:17;100847.25;;;16.22;100.00
75414;BME280;64758;52.122;5.404;2023-07-29T04:34:44;100855.03;;;16.24;100.00
75414;BME280;64758;52.122;5.404;2023-07-29T04:37:11;100858.31;;;16.26;100.00
75414;BME280;64758;52.122;5.404;2023-07-29T04:39:37;100858.31;;;16.26;100.00
75414;BME280;64758;52.122;5.404;2023-07-29T04:42:04;100849.69;;;16.24;100.00
75414;BME280;64758;52.122;5.404;2023-07-29T04:44:31;100850.50;;;16.24;100.00
75414;BME280;64758;52.122;5.404;2023-07-29T04:46:57;100852.16;;;16.25;100.00
75414;BME280;64758;52.122;5.404;2023-07-29T04:49:24;100850.97;;;16.21;100.00
75414;BME280;64758;52.122;5.404;2023-07-29T04:51:50;100849.69;;;16.24;100.00
75414;BME280;64758;52.122;5.404;2023-07-29T04:54:17;100847.25;;;16.22;100.00
75414;BME280;64758;52.122;5.404;2023-07-29T04:56:43;100849.31;;;16.20;100.00
75414;BME280;64758;52.122;5.404;2023-07-29T04:59:10;100854.88;;;16.19;100.00
75414;BME280;64758;52.122;5.404;2023-07-29T05:01:39;100852.81;;;16.21;100.00
75414;BME280;64758;52.122;5.404;2023-07-29T05:04:05;100861.88;;;16.20;100.00
75414;BME280;64758;52.122;5.404;2023-07-29T05:06:32;100862.50;;;16.22;100.00
75414;BME280;64758;52.122;5.404;2023-07-29T05:09:15;100858.56;;;16.24;100.00
75414;BME280;64758;52.122;5.404;2023-07-29T05:11:42;100860.78;;;16.27;100.00
75414;BME280;64758;52.122;5.404;2023-07-29T05:14:13;100871.69;;;16.32;100.00
75414;BME280;64758;52.122;5.404;2023-07-29T05:16:39;100880.56;;;16.33;100.00
75414;BME280;64758;52.122;5.404;2023-07-29T05:19:06;100874.75;;;16.36;100.00
75414;BME280;64758;52.122;5.404;2023-07-29T05:21:33;100874.75;;;16.36;100.00
75414;BME280;64758;52.122;5.404;2023-07-29T05:23:59;100877.22;;;16.37;100.00
75414;BME280;64758;52.122;5.404;2023-07-29T05:26:26;100877.59;;;16.41;100.00
75414;BME280;64758;52.122;5.404;2023-07-29T05:28:53;100871.41;;;16.40;100.00
75414;BME280;64758;52.122;5.404;2023-07-29T05:31:19;100865.16;;;16.46;100.00
75414;BME280;64758;52.122;5.404;2023-07-29T05:33:46;100861.78;;;16.51;100.00
75414;BME280;64758;52.122;5.404;2023-07-29T05:36:12;100873.25;;;16.58;100.00
75414;BME280;64758;52.122;5.404;2023-07-29T05:38:39;100876.53;;;16.60;100.00
75414;BME280;64758;52.122;5.404;2023-07-29T05:41:05;100879.81;;;16.62;100.00
75414;BME280;64758;52.122;5.404;2023-07-29T05:43:32;100880.78;;;16.67;100.00
75414;BME280;64758;52.122;5.404;2023-07-29T05:45:58;100879.28;;;16.71;100.00
75414;BME280;64758;52.122;5.404;2023-07-29T05:48:25;100884.78;;;16.76;100.00
75414;BME280;64758;52.122;5.404;2023-07-29T05:50:51;100881.06;;;16.77;100.00
75414;BME280;64758;52.122;5.404;2023-07-29T05:53:18;100887.41;;;16.82;100.00
75414;BME280;64758;52.122;5.404;2023-07-29T05:55:45;100879.94;;;16.84;100.00
75414;BME280;64758;52.122;5.404;2023-07-29T05:58:11;100869.56;;;16.88;100.00
75414;BME280;64758;52.122;5.404;2023-07-29T06:00:38;100877.75;;;16.93;100.00
75414;BME280;64758;52.122;5.404;2023-07-29T06:03:04;100877.75;;;16.93;100.00
75414;BME280;64758;52.122;5.404;2023-07-29T06:05:31;100879.53;;;16.99;100.00
75414;BME280;64758;52.122;5.404;2023-07-29T06:07:57;100871.03;;;17.02;100.00
75414;BME280;64758;52.122;5.404;2023-07-29T06:10:24;100878.03;;;17.03;100.00
75414;BME280;64758;52.122;5.404;2023-07-29T06:12:50;100881.25;;;17.11;100.00
75414;BME280;64758;52.122;5.404;2023-07-29T06:15:17;100879.28;;;17.18;100.00
75414;BME280;64758;52.122;5.404;2023-07-29T06:17:44;100876.03;;;17.28;100.00
75414;BME280;64758;52.122;5.404;2023-07-29T06:20:10;100865.59;;;17.38;100.00
75414;BME280;64758;52.122;5.404;2023-07-29T06:22:37;100872.28;;;17.47;100.00
75414;BME280;64758;52.122;5.404;2023-07-29T06:25:04;100879.41;;;17.53;100.00
75414;BME280;64758;52.122;5.404;2023-07-29T06:27:30;100869.84;;;17.57;100.00
75414;BME280;64758;52.122;5.404;2023-07-29T06:29:57;100875.94;;;17.64;100.00
75414;BME280;64758;52.122;5.404;2023-07-29T06:32:24;100880.50;;;17.63;100.00
75414;BME280;64758;52.122;5.404;2023-07-29T06:34:51;100888.31;;;17.65;100.00
75414;BME280;64758;52.122;5.404;2023-07-29T06:37:18;100881.31;;;17.64;100.00
75414;BME280;64758;52.122;5.404;2023-07-29T06:39:44;100882.50;;;17.68;100.00
75414;BME280;64758;52.122;5.404;2023-07-29T06:42:11;100878.75;;;17.69;100.00
75414;BME280;64758;52.122;5.404;2023-07-29T06:44:39;100883.78;;;17.77;100.00
75414;BME280;64758;52.122;5.404;2023-07-29T06:47:06;100878.22;;;17.78;100.00
75414;BME280;64758;52.122;5.404;2023-07-29T06:49:33;100883.00;;;17.88;100.00
75414;BME280;64758;52.122;5.404;2023-07-29T06:52:00;100887.44;;;17.93;100.00
75414;BME280;64758;52.122;5.404;2023-07-29T06:54:27;100880.66;;;18.02;100.00
75414;BME280;64758;52.122;5.404;2023-07-29T06:56:53;100884.97;;;18.15;100.00
75414;BME280;64758;52.122;5.404;2023-07-29T06:59:20;100894.16;;;18.25;100.00
75414;BME280;64758;52.122;5.404;2023-07-29T07:01:47;100888.25;;;18.17;100.00
75414;BME280;64758;52.122;5.404;2023-07-29T07:04:13;100887.44;;;18.16;100.00
75414;BME280;64758;52.122;5.404;2023-07-29T07:06:40;100892.34;;;18.19;100.00
75414;BME280;64758;52.122;5.404;2023-07-29T07:09:06;100892.47;;;18.24;100.00
75414;BME280;64758;52.122;5.404;2023-07-29T07:11:33;100882.56;;;18.25;100.00
75414;BME280;64758;52.122;5.404;2023-07-29T07:14:00;100883.13;;;18.27;100.00
75414;BME280;64758;52.122;5.404;2023-07-29T07:16:26;100885.13;;;18.31;100.00
75414;BME280;64758;52.122;5.404;2023-07-29T07:18:56;100892.03;;;18.39;100.00
75414;BME280;64758;52.122;5.404;2023-07-29T07:21:23;100892.16;;;18.32;100.00
75414;BME280;64758;52.122;5.404;2023-07-29T07:23:50;100902.34;;;18.30;100.00
75414;BME280;64758;52.122;5.404;2023-07-29T07:26:17;100898.59;;;18.31;100.00
75414;BME280;64758;52.122;5.404;2023-07-29T07:28:43;100893.44;;;18.30;100.00
75414;BME280;64758;52.122;5.404;2023-07-29T07:31:10;100914.47;;;18.33;100.00
75414;BME280;64758;52.122;5.404;2023-07-29T07:33:37;100901.41;;;18.36;100.00
75414;BME280;64758;52.122;5.404;2023-07-29T07:36:04;100903.94;;;18.43;100.00
75414;BME280;64758;52.122;5.404;2023-07-29T07:38:30;100903.25;;;18.47;100.00
75414;BME280;64758;52.122;5.404;2023-07-29T07:40:57;100904.31;;;18.46;100.00
75414;BME280;64758;52.122;5.404;2023-07-29T07:43:24;100899.97;;;18.45;100.00
75414;BME280;64758;52.122;5.404;2023-07-29T07:45:53;100901.16;;;18.49;100.00
75414;BME280;64758;52.122;5.404;2023-07-29T07:48:23;100897.16;;;18.52;100.00
75414;BME280;64758;52.122;5.404;2023-07-29T07:50:50;100899.25;;;18.61;100.00
75414;BME280;64758;52.122;5.404;2023-07-29T07:53:17;100904.97;;;18.76;100.00
75414;BME280;64758;52.122;5.404;2023-07-29T07:55:43;100900.38;;;18.88;99.21
75414;BME280;64758;52.122;5.404;2023-07-29T07:58:10;100892.72;;;18.97;99.11
75414;BME280;64758;52.122;5.404;2023-07-29T08:00:36;100893.66;;;19.02;99.38
75414;BME280;64758;52.122;5.404;2023-07-29T08:03:03;100900.41;;;19.05;99.08
75414;BME280;64758;52.122;5.404;2023-07-29T08:05:30;100907.22;;;19.07;98.61
75414;BME280;64758;52.122;5.404;2023-07-29T08:07:56;100908.94;;;19.13;97.62
75414;BME280;64758;52.122;5.404;2023-07-29T08:10:24;100916.19;;;19.24;97.47
75414;BME280;64758;52.122;5.404;2023-07-29T08:12:50;100901.34;;;19.38;96.23
75414;BME280;64758;52.122;5.404;2023-07-29T08:15:17;100902.28;;;19.43;96.50
75414;BME280;64758;52.122;5.404;2023-07-29T08:17:43;100903.28;;;19.54;95.89
75414;BME280;64758;52.122;5.404;2023-07-29T08:20:12;100899.59;;;19.60;94.26
75414;BME280;64758;52.122;5.404;2023-07-29T08:22:39;100905.66;;;19.67;92.56
75414;BME280;64758;52.122;5.404;2023-07-29T08:25:06;100903.63;;;19.74;92.15
75414;BME280;64758;52.122;5.404;2023-07-29T08:27:33;100907.06;;;19.86;90.96
75414;BME280;64758;52.122;5.404;2023-07-29T08:30:00;100907.56;;;19.83;90.29
75414;BME280;64758;52.122;5.404;2023-07-29T08:32:27;100911.22;;;19.77;90.39
75414;BME280;64758;52.122;5.404;2023-07-29T08:34:54;100906.22;;;19.69;90.17
75414;BME280;64758;52.122;5.404;2023-07-29T08:37:20;100913.75;;;19.67;90.79
75414;BME280;64758;52.122;5.404;2023-07-29T08:39:47;100911.78;;;19.62;91.63
75414;BME280;64758;52.122;5.404;2023-07-29T08:42:15;100915.28;;;19.63;91.60
75414;BME280;64758;52.122;5.404;2023-07-29T08:44:49;100903.63;;;19.57;92.20
75414;BME280;64758;52.122;5.404;2023-07-29T08:47:16;100909.81;;;19.58;92.72
75414;BME280;64758;52.122;5.404;2023-07-29T08:49:45;100909.81;;;19.58;91.53
75414;BME280;64758;52.122;5.404;2023-07-29T08:52:12;100908.19;;;19.57;92.56
75414;BME280;64758;52.122;5.404;2023-07-29T08:54:40;100904.41;;;19.58;91.39
75414;BME280;64758;52.122;5.404;2023-07-29T08:57:07;100908.75;;;19.59;90.04
75414;BME280;64758;52.122;5.404;2023-07-29T08:59:33;100908.66;;;19.54;90.86
75414;BME280;64758;52.122;5.404;2023-07-29T09:02:00;100910.28;;;19.55;90.89
75414;BME280;64758;52.122;5.404;2023-07-29T09:04:27;100906.88;;;19.59;91.34
75414;BME280;64758;52.122;5.404;2023-07-29T09:06:56;100921.75;;;19.62;90.62
75414;BME280;64758;52.122;5.404;2023-07-29T09:09:22;100917.19;;;19.62;91.88
75414;BME280;64758;52.122;5.404;2023-07-29T09:11:50;100920.09;;;19.61;90.96
75414;BME280;64758;52.122;5.404;2023-07-29T09:14:16;100922.84;;;19.77;92.66
75414;BME280;64758;52.122;5.404;2023-07-29T09:16:43;100915.59;;;20.11;91.23
75414;BME280;64758;52.122;5.404;2023-07-29T09:19:10;100911.34;;;20.15;87.55
75414;BME280;64758;52.122;5.404;2023-07-29T09:21:40;100918.38;;;20.16;87.78
75414;BME280;64758;52.122;5.404;2023-07-29T09:24:07;100908.66;;;20.15;87.66
75414;BME280;64758;52.122;5.404;2023-07-29T09:26:34;100912.00;;;20.22;88.16
75414;BME280;64758;52.122;5.404;2023-07-29T09:29:02;100906.66;;;20.27;88.36
75414;BME280;64758;52.122;5.404;2023-07-29T09:31:29;100912.16;;;20.32;89.06
75414;BME280;64758;52.122;5.404;2023-07-29T09:34:03;100907.50;;;20.27;86.79
75414;BME280;64758;52.122;5.404;2023-07-29T09:36:32;100911.69;;;20.18;87.29
75414;BME280;64758;52.122;5.404;2023-07-29T09:39:00;100918.38;;;20.16;87.76
75414;BME280;64758;52.122;5.404;2023-07-29T09:41:28;100930.16;;;20.26;88.63
75414;BME280;64758;52.122;5.404;2023-07-29T09:43:56;100916.66;;;20.26;86.69
75414;BME280;64758;52.122;5.404;2023-07-29T09:46:25;100917.03;;;20.35;86.53
75414;BME280;64758;52.122;5.404;2023-07-29T09:48:54;100914.72;;;20.43;86.59
75414;BME280;64758;52.122;5.404;2023-07-29T09:51:23;100910.84;;;20.34;85.72
75414;BME280;64758;52.122;5.404;2023-07-29T09:53:51;100915.75;;;20.21;86.17
75414;BME280;64758;52.122;5.404;2023-07-29T09:56:25;100921.88;;;20.00;88.48
75414;BME280;64758;52.122;5.404;2023-07-29T09:58:53;100928.06;;;19.84;90.23
75414;BME280;64758;52.122;5.404;2023-07-29T10:01:21;100930.25;;;19.70;96.24
75414;BME280;64758;52.122;5.404;2023-07-29T10:03:48;100938.84;;;19.39;98.26
75414;BME280;64758;52.122;5.404;2023-07-29T10:06:15;100930.88;;;19.05;100.00
75414;BME280;64758;52.122;5.404;2023-07-29T10:08:43;100928.25;;;18.82;100.00
75414;BME280;64758;52.122;5.404;2023-07-29T10:11:11;100925.34;;;18.72;100.00
75414;BME280;64758;52.122;5.404;2023-07-29T10:13:39;100922.16;;;18.64;100.00
75414;BME280;64758;52.122;5.404;2023-07-29T10:16:05;100923.59;;;18.66;100.00
75414;BME280;64758;52.122;5.404;2023-07-29T10:18:33;100933.88;;;18.69;100.00
75414;BME280;64758;52.122;5.404;2023-07-29T10:21:01;100932.47;;;18.67;100.00
75414;BME280;64758;52.122;5.404;2023-07-29T10:23:32;100924.66;;;18.65;100.00
75414;BME280;64758;52.122;5.404;2023-07-29T10:26:10;100930.34;;;18.69;100.00
75414;BME280;64758;52.122;5.404;2023-07-29T10:28:40;100936.31;;;18.71;100.00
75414;BME280;64758;52.122;5.404;2023-07-29T10:31:07;100933.63;;;18.71;100.00
75414;BME280;64758;52.122;5.404;2023-07-29T10:33:34;100943.59;;;18.70;100.00
75414;BME280;64758;52.122;5.404;2023-07-29T10:36:02;100943.81;;;18.80;100.00
75414;BME280;64758;52.122;5.404;2023-07-29T10:38:29;100940.28;;;18.91;100.00
75414;BME280;64758;52.122;5.404;2023-07-29T10:40:56;100948.78;;;19.00;100.00
75414;BME280;64758;52.122;5.404;2023-07-29T10:46:18;100945.16;;;19.06;100.00
75414;BME280;64758;52.122;5.404;2023-07-29T10:51:30;100928.38;;;19.15;100.00
75414;BME280;64758;52.122;5.404;2023-07-29T10:56:28;100921.47;;;19.19;100.00
75414;BME280;64758;52.122;5.404;2023-07-29T10:58:56;100931.19;;;19.20;100.00
75414;BME280;64758;52.122;5.404;2023-07-29T11:01:31;100926.16;;;19.24;100.00
75414;BME280;64758;52.122;5.404;2023-07-29T11:10:01;100945.50;;;19.48;100.00
75414;BME280;64758;52.122;5.404;2023-07-29T11:12:47;100941.56;;;19.39;100.00
75414;BME280;64758;52.122;5.404;2023-07-29T11:20:15;100942.84;;;19.37;100.00
75414;BME280;64758;52.122;5.404;2023-07-29T11:22:42;100949.75;;;19.33;100.00
75414;BME280;64758;52.122;5.404;2023-07-29T11:25:10;100948.69;;;19.34;100.00
75414;BME280;64758;52.122;5.404;2023-07-29T11:27:38;100948.69;;;19.34;100.00
75414;BME280;64758;52.122;5.404;2023-07-29T11:30:09;100949.19;;;19.31;100.00
75414;BME280;64758;52.122;5.404;2023-07-29T11:32:38;100945.47;;;19.21;100.00
75414;BME280;64758;52.122;5.404;2023-07-29T11:35:12;100948.88;;;19.16;100.00
75414;BME280;64758;52.122;5.404;2023-07-29T11:37:43;100945.59;;;19.14;100.00
75414;BME280;64758;52.122;5.404;2023-07-29T11:40:14;100951.59;;;19.05;100.00
75414;BME280;64758;52.122;5.404;2023-07-29T11:42:41;100940.88;;;18.93;100.00
75414;BME280;64758;52.122;5.404;2023-07-29T11:45:08;100949.88;;;18.87;100.00
75414;BME280;64758;52.122;5.404;2023-07-29T11:47:36;100944.03;;;18.79;100.00
75414;BME280;64758;52.122;5.404;2023-07-29T11:50:07;100947.09;;;18.82;100.00
75414;BME280;64758;52.122;5.404;2023-07-29T11:52:43;100957.13;;;18.87;100.00
75414;BME280;64758;52.122;5.404;2023-07-29T11:55:12;100941.34;;;18.90;100.00
75414;BME280;64758;52.122;5.404;2023-07-29T11:57:39;100945.03;;;19.01;100.00
75414;BME280;64758;52.122;5.404;2023-07-29T12:00:07;100948.66;;;19.06;100.00
75414;BME280;64758;52.122;5.404;2023-07-29T12:02:38;100943.59;;;19.21;100.00
75414;BME280;64758;52.122;5.404;2023-07-29T12:05:05;100935.81;;;19.36;100.00
75414;BME280;64758;52.122;5.404;2023-07-29T12:07:32;100948.03;;;19.55;100.00
75414;BME280;64758;52.122;5.404;2023-07-29T12:10:03;100938.28;;;19.82;100.00
75414;BME280;64758;52.122;5.404;2023-07-29T12:12:30;100937.25;;;20.16;100.00
75414;BME280;64758;52.122;5.404;2023-07-29T12:14:57;100936.31;;;20.43;100.00
75414;BME280;64758;52.122;5.404;2023-07-29T12:17:23;100935.16;;;20.56;100.00
75414;BME280;64758;52.122;5.404;2023-07-29T12:19:54;100927.50;;;20.69;100.00
75414;BME280;64758;52.122;5.404;2023-07-29T12:22:21;100937.81;;;20.88;100.00
75414;BME280;64758;52.122;5.404;2023-07-29T12:24:51;100932.59;;;21.03;100.00
75414;BME280;64758;52.122;5.404;2023-07-29T12:27:21;100919.03;;;20.98;97.48
75414;BME280;64758;52.122;5.404;2023-07-29T12:29:51;100931.91;;;20.91;97.29
75414;BME280;64758;52.122;5.404;2023-07-29T12:32:18;100926.75;;;20.90;98.22
75414;BME280;64758;52.122;5.404;2023-07-29T12:34:45;100926.50;;;20.91;100.00
75414;BME280;64758;52.122;5.404;2023-07-29T12:37:12;100929.28;;;20.96;100.00
75414;BME280;64758;52.122;5.404;2023-07-29T12:39:41;100924.72;;;21.02;100.00
75414;BME280;64758;52.122;5.404;2023-07-29T12:42:08;100932.91;;;21.07;98.07
75414;BME280;64758;52.122;5.404;2023-07-29T12:44:36;100925.13;;;21.10;96.27
75414;BME280;64758;52.122;5.404;2023-07-29T12:47:05;100927.81;;;21.10;95.88
75414;BME280;64758;52.122;5.404;2023-07-29T12:49:32;100918.59;;;21.06;95.03
75414;BME280;64758;52.122;5.404;2023-07-29T12:51:59;100934.41;;;20.98;91.61
75414;BME280;64758;52.122;5.404;2023-07-29T12:54:26;100936.53;;;20.96;92.71
75414;BME280;64758;52.122;5.404;2023-07-29T12:56:53;100934.16;;;20.99;93.38
75414;BME280;64758;52.122;5.404;2023-07-29T12:59:19;100926.75;;;21.11;93.69
75414;BME280;64758;52.122;5.404;2023-07-29T13:01:46;100915.56;;;21.24;95.60
75414;BME280;64758;52.122;5.404;2023-07-29T13:04:13;100930.25;;;21.33;92.50
75414;BME280;64758;52.122;5.404;2023-07-29T13:06:39;100923.88;;;21.44;92.28
75414;BME280;64758;52.122;5.404;2023-07-29T13:09:06;100921.56;;;21.58;86.61